createdAt,value
2018-07-08T00:00:10.843Z,0.00
2018-07-08T00:01:10.796Z,0.00
2018-07-08T00:02:10.725Z,0.00
2018-07-08T00:03:10.663Z,0.00
2018-07-08T00:04:10.604Z,0.00
2018-07-08T00:05:10.543Z,0.00
2018-07-08T00:06:10.480Z,0.00
2018-07-08T00:07:10.420Z,0.00
2018-07-08T00:08:10.361Z,0.00
2018-07-08T00:09:10.301Z,0.00
2018-07-08T00:10:10.242Z,0.00
2018-07-08T00:11:10.185Z,0.00
2018-07-08T00:12:10.120Z,0.00
2018-07-08T00:13:10.064Z,0.00
2018-07-08T00:14:10.003Z,0.00
2018-07-08T00:15:09.948Z,0.00
2018-07-08T00:16:09.881Z,0.00
2018-07-08T00:17:09.820Z,0.00
2018-07-08T00:18:09.763Z,0.00
2018-07-08T00:19:09.697Z,0.00
2018-07-08T00:20:09.640Z,0.00
2018-07-08T00:21:09.581Z,0.00
2018-07-08T00:22:09.520Z,0.00
2018-07-08T00:23:09.461Z,0.00
2018-07-08T00:24:09.400Z,0.00
2018-07-08T00:25:09.348Z,0.00
2018-07-08T00:26:09.276Z,0.00
2018-07-08T00:27:09.219Z,0.00
2018-07-08T00:28:09.164Z,0.00
2018-07-08T00:29:09.099Z,0.00
2018-07-08T00:30:09.037Z,0.00
2018-07-08T00:31:08.979Z,0.00
2018-07-08T00:32:08.916Z,0.00
2018-07-08T00:33:08.857Z,0.00
2018-07-08T00:34:08.800Z,0.00
2018-07-08T00:35:08.739Z,0.00
2018-07-08T00:36:08.679Z,0.00
2018-07-08T00:37:08.616Z,0.00
2018-07-08T00:38:08.555Z,0.00
2018-07-08T00:39:08.495Z,0.00
2018-07-08T00:40:08.440Z,0.00
2018-07-08T00:41:08.373Z,0.00
2018-07-08T00:42:08.315Z,0.00
2018-07-08T00:43:08.256Z,0.00
2018-07-08T00:44:08.204Z,0.00
2018-07-08T00:45:08.134Z,0.00
2018-07-08T00:46:08.076Z,0.00
2018-07-08T00:47:08.020Z,0.00
2018-07-08T00:48:07.957Z,0.00
2018-07-08T00:49:07.897Z,0.00
2018-07-08T00:50:07.832Z,0.00
2018-07-08T00:51:07.770Z,0.00
2018-07-08T00:52:07.712Z,0.00
2018-07-08T00:53:07.652Z,0.00
2018-07-08T00:54:07.591Z,0.00
2018-07-08T00:55:07.532Z,0.00
2018-07-08T00:56:07.474Z,0.00
2018-07-08T00:57:07.420Z,0.00
2018-07-08T00:58:07.346Z,0.00
2018-07-08T00:59:07.288Z,0.00
2018-07-08T01:00:07.234Z,0.00
2018-07-08T01:01:07.165Z,0.00
2018-07-08T01:02:07.103Z,0.00
2018-07-08T01:03:07.048Z,0.00
2018-07-08T01:04:06.984Z,0.00
2018-07-08T01:05:06.926Z,0.00
2018-07-08T01:06:06.866Z,0.00
2018-07-08T01:07:06.805Z,0.00
2018-07-08T01:08:06.749Z,0.00
2018-07-08T01:09:06.687Z,0.00
2018-07-08T01:10:06.621Z,0.00
2018-07-08T01:11:06.560Z,0.00
2018-07-08T01:12:06.501Z,0.00
2018-07-08T01:13:06.440Z,0.00
2018-07-08T01:14:06.381Z,0.00
2018-07-08T01:15:06.320Z,0.00
2018-07-08T01:16:06.254Z,0.00
2018-07-08T01:17:06.197Z,0.00
2018-07-08T01:18:06.139Z,0.00
2018-07-08T01:19:06.076Z,0.00
2018-07-08T01:20:06.015Z,0.00
2018-07-08T01:21:05.955Z,0.00
2018-07-08T01:22:05.891Z,0.00
2018-07-08T01:23:05.831Z,0.00
2018-07-08T01:24:05.772Z,0.00
2018-07-08T01:25:05.710Z,0.00
2018-07-08T01:26:05.650Z,0.00
2018-07-08T01:27:05.589Z,0.00
2018-07-08T01:28:05.530Z,0.00
2018-07-08T01:29:05.468Z,0.00
2018-07-08T01:30:05.405Z,0.00
2018-07-08T01:31:05.344Z,0.00
2018-07-08T01:32:05.288Z,0.00
2018-07-08T01:33:05.223Z,0.00
2018-07-08T01:34:05.166Z,0.00
2018-07-08T01:35:05.101Z,0.00
2018-07-08T01:36:05.040Z,0.00
2018-07-08T01:37:04.980Z,0.00
2018-07-08T01:38:04.918Z,0.00
2018-07-08T01:39:04.862Z,0.00
2018-07-08T01:40:04.800Z,0.00
2018-07-08T01:41:04.739Z,0.00
2018-07-08T01:42:04.674Z,0.00
2018-07-08T01:43:04.614Z,0.00
2018-07-08T01:44:04.550Z,0.00
2018-07-08T01:45:04.493Z,0.00
2018-07-08T01:46:04.440Z,0.00
2018-07-08T01:47:04.371Z,0.00
2018-07-08T01:48:04.310Z,0.00
2018-07-08T01:49:04.251Z,0.00
2018-07-08T01:50:04.189Z,0.00
2018-07-08T01:51:04.128Z,0.00
2018-07-08T01:52:04.072Z,0.00
2018-07-08T01:53:04.008Z,0.00
2018-07-08T01:54:03.947Z,0.00
2018-07-08T01:55:03.886Z,0.00
2018-07-08T01:56:03.823Z,0.00
2018-07-08T01:57:03.764Z,0.00
2018-07-08T01:58:03.710Z,0.00
2018-07-08T01:59:03.636Z,0.00
2018-07-08T02:00:03.579Z,0.00
2018-07-08T02:01:03.518Z,0.00
2018-07-08T02:02:03.458Z,0.00
2018-07-08T02:03:03.397Z,0.00
2018-07-08T02:04:03.335Z,0.00
2018-07-08T02:05:03.277Z,0.00
2018-07-08T02:06:03.215Z,0.00
2018-07-08T02:07:03.186Z,0.00
2018-07-08T02:08:03.089Z,0.00
2018-07-08T02:09:03.032Z,0.00
2018-07-08T02:10:02.967Z,0.00
2018-07-08T02:11:02.906Z,0.00
2018-07-08T02:12:02.846Z,0.00
2018-07-08T02:13:02.782Z,0.00
2018-07-08T02:14:02.727Z,0.00
2018-07-08T02:15:02.665Z,0.00
2018-07-08T02:16:02.601Z,0.00
2018-07-08T02:17:02.549Z,0.00
2018-07-08T02:18:02.480Z,0.00
2018-07-08T02:19:02.416Z,0.00
2018-07-08T02:20:02.356Z,0.00
2018-07-08T02:21:02.298Z,0.00
2018-07-08T02:22:02.232Z,0.00
2018-07-08T02:23:02.179Z,0.00
2018-07-08T02:24:02.113Z,0.00
2018-07-08T02:25:02.056Z,0.00
2018-07-08T02:26:01.991Z,0.00
2018-07-08T02:27:01.937Z,0.00
2018-07-08T02:28:01.870Z,0.00
2018-07-08T02:29:01.821Z,0.00
2018-07-08T02:30:01.745Z,0.00
2018-07-08T02:31:01.680Z,0.00
2018-07-08T02:32:01.621Z,0.00
2018-07-08T02:33:01.560Z,0.00
2018-07-08T02:34:01.512Z,0.00
2018-07-08T02:35:01.439Z,0.00
2018-07-08T02:36:01.377Z,0.00
2018-07-08T02:37:01.310Z,0.00
2018-07-08T02:38:01.263Z,0.00
2018-07-08T02:39:01.196Z,0.00
2018-07-08T02:40:01.131Z,0.00
2018-07-08T02:41:01.085Z,0.00
2018-07-08T02:42:01.009Z,0.00
2018-07-08T02:43:00.945Z,0.00
2018-07-08T02:44:00.886Z,0.00
2018-07-08T02:45:00.825Z,5.63
2018-07-08T02:46:00.767Z,5.63
2018-07-08T02:47:00.704Z,5.63
2018-07-08T02:48:00.643Z,5.63
2018-07-08T02:49:00.579Z,5.63
2018-07-08T02:50:00.519Z,5.63
2018-07-08T02:51:00.458Z,5.63
2018-07-08T02:52:00.394Z,5.63
2018-07-08T02:53:00.343Z,11.25
2018-07-08T02:54:00.272Z,11.25
2018-07-08T02:55:00.222Z,11.25
2018-07-08T02:56:00.148Z,11.25
2018-07-08T02:57:00.103Z,11.25
2018-07-08T02:58:00.035Z,11.25
2018-07-08T02:58:59.976Z,16.88
2018-07-08T02:59:59.908Z,16.88
2018-07-08T03:00:59.847Z,16.88
2018-07-08T03:01:59.783Z,16.88
2018-07-08T03:02:59.721Z,16.88
2018-07-08T03:03:59.658Z,16.88
2018-07-08T03:04:59.599Z,16.88
2018-07-08T03:05:59.540Z,16.88
2018-07-08T03:06:59.476Z,22.50
2018-07-08T03:07:59.414Z,22.50
2018-07-08T03:08:59.353Z,22.50
2018-07-08T03:09:59.290Z,22.50
2018-07-08T03:10:59.232Z,22.50
2018-07-08T03:11:59.174Z,28.13
2018-07-08T03:12:59.115Z,28.13
2018-07-08T03:13:59.045Z,28.13
2018-07-08T03:14:58.985Z,33.75
2018-07-08T03:15:58.925Z,33.75
2018-07-08T03:16:58.867Z,33.75
2018-07-08T03:17:58.802Z,39.38
2018-07-08T03:18:58.739Z,39.38
2018-07-08T03:19:58.676Z,39.38
2018-07-08T03:20:58.618Z,45.00
2018-07-08T03:21:58.553Z,45.00
2018-07-08T03:22:58.489Z,50.63
2018-07-08T03:23:58.437Z,50.63
2018-07-08T03:24:58.379Z,50.63
2018-07-08T03:25:58.307Z,56.25
2018-07-08T03:26:58.247Z,56.25
2018-07-08T03:27:58.187Z,56.25
2018-07-08T03:28:58.121Z,61.88
2018-07-08T03:29:58.064Z,61.88
2018-07-08T03:30:58.009Z,61.88
2018-07-08T03:31:57.939Z,67.50
2018-07-08T03:32:57.881Z,67.50
2018-07-08T03:33:57.825Z,67.50
2018-07-08T03:34:57.756Z,73.13
2018-07-08T03:35:57.694Z,73.13
2018-07-08T03:36:57.635Z,73.13
2018-07-08T03:37:57.571Z,73.13
2018-07-08T03:38:57.512Z,73.13
2018-07-08T03:39:57.453Z,73.13
2018-07-08T03:40:57.384Z,73.13
2018-07-08T03:41:57.327Z,78.75
2018-07-08T03:42:57.268Z,78.75
2018-07-08T03:43:57.204Z,78.75
2018-07-08T03:44:57.143Z,78.75
2018-07-08T03:45:57.082Z,84.38
2018-07-08T03:46:57.013Z,84.38
2018-07-08T03:47:56.961Z,84.38
2018-07-08T03:48:56.893Z,90.00
2018-07-08T03:49:56.830Z,90.00
2018-07-08T03:50:56.777Z,95.63
2018-07-08T03:51:56.722Z,101.25
2018-07-08T03:52:56.652Z,106.88
2018-07-08T03:53:56.586Z,106.88
2018-07-08T03:54:56.528Z,112.50
2018-07-08T03:55:56.465Z,112.50
2018-07-08T03:56:56.404Z,112.50
2018-07-08T03:57:56.340Z,118.13
2018-07-08T03:58:56.278Z,118.13
2018-07-08T03:59:56.217Z,118.13
2018-07-08T04:00:56.157Z,118.13
2018-07-08T04:01:56.098Z,118.13
2018-07-08T04:02:56.031Z,118.13
2018-07-08T04:03:55.974Z,123.75
2018-07-08T04:04:55.913Z,123.75
2018-07-08T04:05:55.853Z,129.38
2018-07-08T04:06:55.789Z,129.38
2018-07-08T04:07:55.724Z,135.00
2018-07-08T04:08:55.662Z,140.63
2018-07-08T04:09:55.602Z,146.25
2018-07-08T04:10:55.540Z,146.25
2018-07-08T04:11:55.479Z,146.25
2018-07-08T04:12:55.417Z,146.25
2018-07-08T04:13:55.357Z,151.88
2018-07-08T04:14:55.295Z,146.25
2018-07-08T04:15:55.235Z,151.88
2018-07-08T04:16:55.172Z,151.88
2018-07-08T04:17:55.109Z,151.88
2018-07-08T04:18:55.049Z,140.63
2018-07-08T04:19:54.987Z,135.00
2018-07-08T04:20:54.926Z,129.38
2018-07-08T04:21:54.866Z,123.75
2018-07-08T04:22:54.804Z,123.75
2018-07-08T04:23:54.741Z,123.75
2018-07-08T04:24:54.682Z,129.38
2018-07-08T04:25:54.622Z,140.63
2018-07-08T04:26:54.557Z,157.50
2018-07-08T04:27:54.496Z,174.38
2018-07-08T04:28:54.438Z,185.63
2018-07-08T04:29:54.372Z,191.25
2018-07-08T04:30:54.309Z,196.88
2018-07-08T04:31:54.251Z,191.25
2018-07-08T04:32:54.189Z,196.88
2018-07-08T04:33:54.134Z,196.88
2018-07-08T04:34:54.069Z,202.50
2018-07-08T04:35:54.007Z,213.75
2018-07-08T04:36:53.947Z,213.75
2018-07-08T04:37:53.882Z,213.75
2018-07-08T04:38:53.822Z,213.75
2018-07-08T04:39:53.760Z,208.13
2018-07-08T04:40:53.699Z,202.50
2018-07-08T04:41:53.638Z,196.88
2018-07-08T04:42:53.580Z,196.88
2018-07-08T04:43:53.518Z,196.88
2018-07-08T04:44:53.457Z,191.25
2018-07-08T04:45:53.394Z,196.88
2018-07-08T04:46:53.332Z,202.50
2018-07-08T04:47:53.273Z,208.13
2018-07-08T04:48:53.215Z,219.38
2018-07-08T04:49:53.148Z,230.63
2018-07-08T04:50:53.085Z,241.88
2018-07-08T04:51:53.026Z,258.75
2018-07-08T04:52:52.964Z,258.75
2018-07-08T04:53:52.903Z,258.75
2018-07-08T04:54:52.847Z,258.75
2018-07-08T04:55:52.784Z,270.00
2018-07-08T04:56:52.725Z,264.38
2018-07-08T04:57:52.658Z,258.75
2018-07-08T04:58:52.598Z,253.13
2018-07-08T04:59:52.539Z,253.13
2018-07-08T05:00:52.554Z,264.38
2018-07-08T05:01:52.413Z,270.00
2018-07-08T05:02:52.354Z,275.63
2018-07-08T05:03:52.292Z,281.25
2018-07-08T05:04:52.230Z,286.88
2018-07-08T05:05:52.177Z,309.38
2018-07-08T05:06:52.124Z,292.50
2018-07-08T05:07:52.049Z,292.50
2018-07-08T05:08:51.997Z,298.13
2018-07-08T05:09:51.935Z,298.13
2018-07-08T05:10:51.866Z,286.88
2018-07-08T05:11:51.808Z,275.63
2018-07-08T05:12:51.753Z,270.00
2018-07-08T05:13:51.686Z,264.38
2018-07-08T05:14:51.625Z,258.75
2018-07-08T05:15:51.563Z,270.00
2018-07-08T05:16:51.499Z,292.50
2018-07-08T05:17:51.442Z,320.63
2018-07-08T05:18:51.384Z,354.38
2018-07-08T05:19:51.322Z,393.75
2018-07-08T05:20:51.261Z,427.50
2018-07-08T05:21:51.199Z,393.75
2018-07-08T05:22:51.131Z,399.38
2018-07-08T05:23:51.089Z,393.75
2018-07-08T05:24:51.015Z,393.75
2018-07-08T05:25:50.959Z,388.13
2018-07-08T05:26:50.894Z,393.75
2018-07-08T05:27:50.835Z,399.38
2018-07-08T05:28:50.776Z,410.63
2018-07-08T05:29:50.731Z,433.13
2018-07-08T05:30:50.646Z,461.25
2018-07-08T05:31:50.599Z,483.75
2018-07-08T05:32:50.531Z,500.63
2018-07-08T05:33:50.464Z,528.75
2018-07-08T05:34:50.415Z,540.00
2018-07-08T05:35:50.348Z,556.88
2018-07-08T05:36:50.286Z,545.63
2018-07-08T05:37:50.231Z,506.25
2018-07-08T05:38:50.167Z,478.13
2018-07-08T05:39:50.109Z,483.75
2018-07-08T05:40:50.051Z,472.50
2018-07-08T05:41:49.984Z,472.50
2018-07-08T05:42:49.924Z,444.38
2018-07-08T05:43:49.864Z,416.25
2018-07-08T05:44:49.805Z,416.25
2018-07-08T05:45:49.744Z,421.88
2018-07-08T05:46:49.683Z,427.50
2018-07-08T05:47:49.625Z,438.75
2018-07-08T05:48:49.563Z,461.25
2018-07-08T05:49:49.505Z,466.88
2018-07-08T05:50:49.444Z,410.63
2018-07-08T05:51:49.385Z,376.88
2018-07-08T05:52:49.327Z,365.63
2018-07-08T05:53:49.263Z,354.38
2018-07-08T05:54:49.204Z,337.50
2018-07-08T05:55:49.139Z,315.00
2018-07-08T05:56:49.086Z,298.13
2018-07-08T05:57:49.022Z,281.25
2018-07-08T05:58:48.964Z,275.63
2018-07-08T05:59:48.905Z,270.00
2018-07-08T06:00:48.842Z,270.00
2018-07-08T06:01:48.781Z,270.00
2018-07-08T06:02:48.721Z,264.38
2018-07-08T06:03:48.661Z,258.75
2018-07-08T06:04:48.603Z,247.50
2018-07-08T06:05:48.539Z,247.50
2018-07-08T06:06:48.488Z,247.50
2018-07-08T06:07:48.418Z,253.13
2018-07-08T06:08:48.359Z,275.63
2018-07-08T06:09:48.302Z,309.38
2018-07-08T06:10:48.240Z,348.75
2018-07-08T06:11:48.180Z,376.88
2018-07-08T06:12:48.120Z,405.00
2018-07-08T06:13:48.060Z,461.25
2018-07-08T06:14:47.995Z,500.63
2018-07-08T06:15:47.936Z,523.13
2018-07-08T06:16:47.901Z,523.13
2018-07-08T06:17:47.819Z,506.25
2018-07-08T06:18:47.756Z,495.00
2018-07-08T06:19:47.694Z,489.38
2018-07-08T06:20:47.635Z,495.00
2018-07-08T06:21:47.575Z,466.88
2018-07-08T06:22:47.515Z,444.38
2018-07-08T06:23:47.454Z,444.38
2018-07-08T06:24:47.395Z,438.75
2018-07-08T06:25:47.331Z,393.75
2018-07-08T06:26:47.272Z,376.88
2018-07-08T06:27:47.212Z,393.75
2018-07-08T06:28:47.153Z,399.38
2018-07-08T06:29:47.092Z,382.50
2018-07-08T06:30:47.032Z,360.00
2018-07-08T06:31:47.053Z,348.75
2018-07-08T06:32:46.911Z,326.25
2018-07-08T06:33:46.846Z,326.25
2018-07-08T06:34:46.789Z,343.13
2018-07-08T06:35:46.735Z,382.50
2018-07-08T06:36:46.671Z,421.88
2018-07-08T06:37:46.610Z,438.75
2018-07-08T06:38:46.551Z,438.75
2018-07-08T06:39:46.491Z,433.13
2018-07-08T06:40:46.432Z,427.50
2018-07-08T06:41:46.379Z,438.75
2018-07-08T06:42:46.322Z,472.50
2018-07-08T06:43:46.252Z,523.13
2018-07-08T06:44:46.197Z,568.13
2018-07-08T06:45:46.143Z,585.00
2018-07-08T06:46:46.070Z,556.88
2018-07-08T06:47:46.011Z,545.63
2018-07-08T06:50:19.060Z,534.38
2018-07-08T06:51:18.973Z,506.25
2018-07-08T06:53:13.386Z,517.50
2018-07-08T06:54:13.188Z,540.00
2018-07-08T06:56:07.101Z,776.25
2018-07-08T06:57:06.396Z,832.50
2018-07-08T06:58:59.711Z,736.88
2018-07-08T06:59:59.611Z,618.75
2018-07-08T07:01:52.919Z,506.25
2018-07-08T07:02:52.833Z,545.63
2018-07-08T07:03:52.778Z,585.00
2018-07-08T07:04:52.712Z,573.75
2018-07-08T07:05:52.652Z,590.63
2018-07-08T07:06:52.596Z,618.75
2018-07-08T07:07:52.541Z,646.88
2018-07-08T07:08:52.479Z,658.13
2018-07-08T07:09:52.418Z,646.88
2018-07-08T07:10:52.353Z,630.00
2018-07-08T07:11:52.297Z,601.88
2018-07-08T07:12:52.237Z,585.00
2018-07-08T07:13:52.177Z,624.38
2018-07-08T07:14:52.119Z,675.00
2018-07-08T07:15:52.056Z,697.50
2018-07-08T07:16:51.995Z,641.25
2018-07-08T07:17:51.939Z,624.38
2018-07-08T07:18:51.880Z,607.50
2018-07-08T07:19:51.817Z,573.75
2018-07-08T07:20:51.761Z,556.88
2018-07-08T07:21:51.705Z,568.13
2018-07-08T07:22:51.680Z,585.00
2018-07-08T07:23:51.583Z,585.00
2018-07-08T07:24:51.528Z,590.63
2018-07-08T07:25:51.463Z,641.25
2018-07-08T07:26:51.406Z,646.88
2018-07-08T07:27:51.343Z,613.13
2018-07-08T07:28:51.290Z,613.13
2018-07-08T07:29:51.226Z,675.00
2018-07-08T07:30:51.180Z,731.25
2018-07-08T07:31:51.108Z,725.63
2018-07-08T07:32:51.051Z,635.63
2018-07-08T07:33:50.989Z,568.13
2018-07-08T07:34:50.927Z,607.50
2018-07-08T07:35:50.873Z,686.25
2018-07-08T07:36:50.815Z,714.38
2018-07-08T07:37:50.758Z,697.50
2018-07-08T07:38:50.697Z,697.50
2018-07-08T07:39:50.635Z,714.38
2018-07-08T07:40:50.576Z,793.13
2018-07-08T07:41:50.517Z,849.38
2018-07-08T07:42:50.457Z,888.75
2018-07-08T07:43:50.399Z,871.88
2018-07-08T07:44:50.342Z,810.00
2018-07-08T07:45:50.280Z,826.88
2018-07-08T07:46:50.221Z,877.50
2018-07-08T07:47:50.169Z,916.88
2018-07-08T07:48:50.099Z,911.25
2018-07-08T07:49:50.049Z,945.00
2018-07-08T07:50:49.986Z,995.63
2018-07-08T07:51:52.498Z,911.25
2018-07-08T07:53:10.860Z,810.00
2018-07-08T07:53:49.811Z,787.50
2018-07-08T07:54:49.753Z,838.13
2018-07-08T07:55:49.699Z,838.13
2018-07-08T07:56:49.637Z,815.63
2018-07-08T07:57:49.575Z,793.13
2018-07-08T07:58:49.514Z,821.25
2018-07-08T07:59:49.476Z,810.00
2018-07-08T08:00:49.401Z,804.38
2018-07-08T08:01:49.346Z,810.00
2018-07-08T08:02:49.279Z,793.13
2018-07-08T08:03:49.225Z,804.38
2018-07-08T08:04:49.166Z,826.88
2018-07-08T08:05:49.110Z,838.13
2018-07-08T08:06:49.051Z,855.00
2018-07-08T08:07:48.991Z,888.75
2018-07-08T08:08:48.939Z,888.75
2018-07-08T08:09:48.873Z,883.13
2018-07-08T08:10:48.856Z,866.25
2018-07-08T08:11:48.759Z,832.50
2018-07-08T08:12:48.703Z,798.75
2018-07-08T08:13:48.648Z,781.88
2018-07-08T08:14:48.586Z,787.50
2018-07-08T08:15:48.533Z,810.00
2018-07-08T08:16:48.475Z,832.50
2018-07-08T08:17:48.412Z,815.63
2018-07-08T08:18:48.359Z,798.75
2018-07-08T08:19:48.292Z,804.38
2018-07-08T08:20:48.235Z,781.88
2018-07-08T08:21:48.337Z,765.00
2018-07-08T08:22:48.120Z,748.13
2018-07-08T08:23:48.066Z,731.25
2018-07-08T08:24:48.001Z,731.25
2018-07-08T08:25:47.955Z,748.13
2018-07-08T08:26:47.933Z,748.13
2018-07-08T08:27:47.830Z,736.88
2018-07-08T08:28:47.768Z,765.00
2018-07-08T08:29:47.712Z,776.25
2018-07-08T08:30:47.652Z,776.25
2018-07-08T08:31:47.597Z,793.13
2018-07-08T08:32:47.605Z,798.75
2018-07-08T08:33:47.481Z,832.50
2018-07-08T08:34:47.419Z,849.38
2018-07-08T08:35:47.358Z,855.00
2018-07-08T08:36:47.304Z,860.63
2018-07-08T08:37:47.249Z,871.88
2018-07-08T08:38:47.192Z,911.25
2018-07-08T08:39:47.126Z,973.13
2018-07-08T08:40:47.068Z,1040.63
2018-07-08T08:41:47.006Z,1091.25
2018-07-08T08:42:46.951Z,1125.00
2018-07-08T08:43:46.898Z,1153.13
2018-07-08T08:44:46.840Z,1220.63
2018-07-08T08:45:46.780Z,1344.38
2018-07-08T08:46:46.716Z,1411.88
2018-07-08T08:47:46.662Z,1378.13
2018-07-08T08:48:46.603Z,1305.00
2018-07-08T08:49:46.552Z,1327.50
2018-07-08T08:50:46.489Z,1186.88
2018-07-08T08:51:46.432Z,1074.38
2018-07-08T08:52:46.375Z,1175.63
2018-07-08T08:53:46.316Z,1063.13
2018-07-08T08:54:46.260Z,900.00
2018-07-08T08:55:46.204Z,933.75
2018-07-08T08:56:46.144Z,1057.50
2018-07-08T08:57:46.101Z,1018.13
2018-07-08T08:58:46.028Z,1051.88
2018-07-08T08:59:45.971Z,1063.13
2018-07-08T09:00:45.913Z,1023.75
2018-07-08T09:01:45.866Z,1035.00
2018-07-08T09:02:45.804Z,1012.50
2018-07-08T09:03:45.753Z,967.50
2018-07-08T09:04:45.689Z,911.25
2018-07-08T09:05:45.632Z,871.88
2018-07-08T09:06:45.574Z,877.50
2018-07-08T09:07:45.516Z,911.25
2018-07-08T09:08:45.466Z,905.63
2018-07-08T09:09:45.408Z,922.50
2018-07-08T09:10:45.362Z,995.63
2018-07-08T09:11:45.281Z,1170.00
2018-07-08T09:12:45.231Z,1113.75
2018-07-08T09:13:45.173Z,1164.38
2018-07-08T09:14:45.117Z,1209.38
2018-07-08T09:15:45.057Z,1153.13
2018-07-08T09:16:45.009Z,1243.13
2018-07-08T09:17:44.945Z,1361.25
2018-07-08T09:18:44.891Z,1383.75
2018-07-08T09:19:44.829Z,1400.63
2018-07-08T09:20:44.776Z,1411.88
2018-07-08T09:21:44.709Z,1164.38
2018-07-08T09:22:44.666Z,984.38
2018-07-08T09:23:44.661Z,1170.00
2018-07-08T09:24:44.548Z,1316.25
2018-07-08T09:25:44.493Z,1327.50
2018-07-08T09:26:44.433Z,1344.38
2018-07-08T09:27:44.376Z,1355.63
2018-07-08T09:28:44.320Z,1350.00
2018-07-08T09:29:44.271Z,1383.75
2018-07-08T09:30:44.209Z,1395.00
2018-07-08T09:31:44.153Z,1260.00
2018-07-08T09:32:44.092Z,1057.50
2018-07-08T09:33:44.033Z,978.75
2018-07-08T09:34:43.982Z,871.88
2018-07-08T09:35:43.924Z,720.00
2018-07-08T09:36:43.873Z,630.00
2018-07-08T09:37:43.817Z,646.88
2018-07-08T09:38:43.825Z,691.88
2018-07-08T09:39:43.701Z,725.63
2018-07-08T09:40:43.649Z,849.38
2018-07-08T09:41:43.590Z,1119.38
2018-07-08T09:42:43.532Z,1231.88
2018-07-08T09:43:43.480Z,1271.25
2018-07-08T09:44:43.420Z,1400.63
2018-07-08T09:45:43.363Z,1383.75
2018-07-08T09:46:43.308Z,1276.88
2018-07-08T09:47:43.254Z,1164.38
2018-07-08T09:48:43.208Z,1248.75
2018-07-08T09:49:43.140Z,1293.75
2018-07-08T09:50:43.086Z,1338.75
2018-07-08T09:51:43.024Z,1327.50
2018-07-08T09:52:42.989Z,1366.88
2018-07-08T09:53:42.917Z,1366.88
2018-07-08T09:54:42.859Z,1220.63
2018-07-08T09:55:42.803Z,1164.38
2018-07-08T09:56:42.752Z,1164.38
2018-07-08T09:57:42.685Z,1192.50
2018-07-08T09:58:42.638Z,1068.75
2018-07-08T09:59:42.598Z,900.00
2018-07-08T10:00:42.522Z,956.25
2018-07-08T10:01:42.465Z,961.88
2018-07-08T10:02:42.414Z,905.63
2018-07-08T10:03:42.357Z,888.75
2018-07-08T10:04:42.390Z,770.63
2018-07-08T10:05:42.247Z,708.75
2018-07-08T10:06:42.194Z,658.13
2018-07-08T10:07:42.137Z,742.50
2018-07-08T10:08:42.127Z,821.25
2018-07-08T10:09:42.026Z,990.00
2018-07-08T10:10:41.967Z,1080.00
2018-07-08T10:11:41.906Z,922.50
2018-07-08T10:12:41.852Z,742.50
2018-07-08T10:13:41.854Z,680.63
2018-07-08T10:14:41.736Z,680.63
2018-07-08T10:15:41.686Z,675.00
2018-07-08T10:16:41.629Z,748.13
2018-07-08T10:17:41.592Z,776.25
2018-07-08T10:18:41.511Z,860.63
2018-07-08T10:19:41.516Z,990.00
2018-07-08T10:20:41.399Z,967.50
2018-07-08T10:21:41.344Z,900.00
2018-07-08T10:22:41.280Z,928.13
2018-07-08T10:23:41.220Z,1074.38
2018-07-08T10:24:41.172Z,950.63
2018-07-08T10:25:41.111Z,1040.63
2018-07-08T10:26:41.069Z,1080.00
2018-07-08T10:27:41.002Z,1057.50
2018-07-08T10:28:40.948Z,961.88
2018-07-08T10:29:40.885Z,973.13
2018-07-08T10:30:40.832Z,894.38
2018-07-08T10:31:40.774Z,838.13
2018-07-08T10:32:40.717Z,815.63
2018-07-08T10:33:40.658Z,815.63
2018-07-08T10:34:40.601Z,877.50
2018-07-08T10:35:40.545Z,894.38
2018-07-08T10:36:40.521Z,804.38
2018-07-08T10:37:40.431Z,855.00
2018-07-08T10:38:40.378Z,961.88
2018-07-08T10:39:40.319Z,1237.50
2018-07-08T10:40:40.264Z,1147.50
2018-07-08T10:41:40.205Z,1141.88
2018-07-08T10:42:40.150Z,1243.13
2018-07-08T10:43:40.094Z,1378.13
2018-07-08T10:44:40.035Z,1248.75
2018-07-08T10:45:39.981Z,1130.63
2018-07-08T10:46:39.923Z,1074.38
2018-07-08T10:47:39.867Z,1063.13
2018-07-08T10:48:39.810Z,995.63
2018-07-08T10:49:39.757Z,1001.25
2018-07-08T10:50:39.700Z,1029.38
2018-07-08T10:51:39.644Z,1085.63
2018-07-08T10:52:39.591Z,1096.88
2018-07-08T10:53:39.534Z,1164.38
2018-07-08T10:54:39.475Z,1231.88
2018-07-08T10:55:39.418Z,1147.50
2018-07-08T10:56:39.363Z,1181.25
2018-07-08T10:57:39.312Z,1327.50
2018-07-08T10:58:39.261Z,1338.75
2018-07-08T10:59:39.194Z,1203.75
2018-07-08T11:00:39.135Z,1080.00
2018-07-08T11:01:39.127Z,1136.25
2018-07-08T11:02:39.029Z,1276.88
2018-07-08T11:03:38.971Z,1366.88
2018-07-08T11:04:38.920Z,1411.88
2018-07-08T11:05:38.862Z,1378.13
2018-07-08T11:06:38.806Z,1411.88
2018-07-08T11:07:38.748Z,1445.63
2018-07-08T11:08:38.694Z,1513.13
2018-07-08T11:09:38.639Z,1496.25
2018-07-08T11:10:38.596Z,1603.13
2018-07-08T11:11:38.532Z,1743.75
2018-07-08T11:12:38.474Z,1783.13
2018-07-08T11:13:38.422Z,1631.25
2018-07-08T11:14:38.366Z,1575.00
2018-07-08T11:15:38.308Z,1248.75
2018-07-08T11:16:38.267Z,1237.50
2018-07-08T11:17:38.210Z,1220.63
2018-07-08T11:18:38.148Z,1186.88
2018-07-08T11:19:38.111Z,1198.13
2018-07-08T11:20:38.093Z,1254.38
2018-07-08T11:21:37.993Z,1226.25
2018-07-08T11:22:37.939Z,1130.63
2018-07-08T11:23:37.892Z,1170.00
2018-07-08T11:24:37.844Z,1164.38
2018-07-08T11:25:37.779Z,1096.88
2018-07-08T11:26:37.724Z,1006.88
2018-07-08T11:27:37.676Z,973.13
2018-07-08T11:28:37.657Z,961.88
2018-07-08T11:29:37.560Z,916.88
2018-07-08T11:30:37.523Z,871.88
2018-07-08T11:31:37.459Z,804.38
2018-07-08T11:32:37.402Z,776.25
2018-07-08T11:33:37.352Z,793.13
2018-07-08T11:34:37.300Z,798.75
2018-07-08T11:35:37.256Z,826.88
2018-07-08T11:36:37.191Z,911.25
2018-07-08T11:37:37.131Z,978.75
2018-07-08T11:38:37.079Z,956.25
2018-07-08T11:39:37.029Z,995.63
2018-07-08T11:40:36.967Z,1068.75
2018-07-08T11:41:36.912Z,3993.75
2018-07-08T11:42:36.861Z,900.00
2018-07-08T11:43:36.808Z,877.50
2018-07-08T11:44:36.750Z,877.50
2018-07-08T11:45:36.699Z,883.13
2018-07-08T11:46:36.639Z,900.00
2018-07-08T11:47:36.590Z,888.75
2018-07-08T11:48:36.541Z,877.50
2018-07-08T11:49:36.477Z,883.13
2018-07-08T11:50:36.427Z,922.50
2018-07-08T11:51:36.368Z,967.50
2018-07-08T11:52:36.310Z,1040.63
2018-07-08T11:53:36.257Z,1102.50
2018-07-08T11:54:36.204Z,1164.38
2018-07-08T11:55:36.149Z,1271.25
2018-07-08T11:56:36.099Z,2250.00
2018-07-08T11:57:36.041Z,1901.25
2018-07-08T11:58:35.993Z,1597.50
2018-07-08T11:59:35.928Z,1321.88
2018-07-08T12:00:35.875Z,1749.38
2018-07-08T12:01:35.820Z,2233.13
2018-07-08T12:02:35.767Z,3543.75
2018-07-08T12:03:35.722Z,2092.50
2018-07-08T12:04:35.662Z,1175.63
2018-07-08T12:05:35.617Z,1068.75
2018-07-08T12:06:35.563Z,1080.00
2018-07-08T12:07:35.501Z,956.25
2018-07-08T12:08:35.451Z,1029.38
2018-07-08T12:09:35.398Z,1170.00
2018-07-08T12:10:35.347Z,1299.38
2018-07-08T12:11:35.290Z,1299.38
2018-07-08T12:12:35.238Z,1209.38
2018-07-08T12:13:35.191Z,1136.25
2018-07-08T12:14:35.179Z,1327.50
2018-07-08T12:15:35.083Z,1636.88
2018-07-08T12:16:35.027Z,1361.25
2018-07-08T12:17:34.975Z,1164.38
2018-07-08T12:18:34.920Z,1012.50
2018-07-08T12:19:34.864Z,978.75
2018-07-08T12:20:34.818Z,1080.00
2018-07-08T12:21:34.765Z,1355.63
2018-07-08T12:22:34.707Z,1080.00
2018-07-08T12:23:34.657Z,1091.25
2018-07-08T12:24:34.603Z,961.88
2018-07-08T12:25:34.578Z,900.00
2018-07-08T12:26:34.502Z,1001.25
2018-07-08T12:27:34.484Z,1243.13
2018-07-08T12:28:34.397Z,1546.88
2018-07-08T12:29:34.338Z,4398.75
2018-07-08T12:30:34.285Z,1991.25
2018-07-08T12:31:34.231Z,1783.13
2018-07-08T12:32:34.183Z,4893.75
2018-07-08T12:33:34.128Z,5130.00
2018-07-08T12:34:34.078Z,5490.00
2018-07-08T12:35:34.027Z,4511.25
2018-07-08T12:36:33.971Z,5118.75
2018-07-08T12:37:34.594Z,1558.13
2018-07-08T12:38:33.875Z,1305.00
2018-07-08T12:39:33.824Z,3200.63
2018-07-08T12:40:33.780Z,5540.63